Time;durP1;ratioP1;P1;durP2;ratioP2;P2;SDS_P1;SDS_P2;PMS_P1;PMS_P2;Temp;Humidity;BMP_temperature;BMP_pressure;BME280_temperature;BME280_humidity;BME280_pressure;Samples;Min_cycle;Max_cycle;Signal;HPM_P1;HPM_P2
2022/04/22 00:00:38;;;;;;;11.55;8.70;;;;;;;;;;4994297;28;20395;-70
2022/04/22 00:03:06;;;;;;;14.13;9.48;;;;;;;;;;4993572;28;20040;-70
2022/04/22 00:05:32;;;;;;;10.98;9.23;;;;;;;;;;4993876;28;20014;-70
2022/04/22 00:07:58;;;;;;;13.52;9.10;;;;;;;;;;4993878;28;20038;-70
2022/04/22 00:10:25;;;;;;;9.82;8.73;;;;;;;;;;4993902;28;20018;-70
2022/04/22 00:12:51;;;;;;;10.10;8.93;;;;;;;;;;4993937;28;20030;-70
2022/04/22 00:15:17;;;;;;;14.57;9.93;;;;;;;;;;4994324;28;20030;-70
2022/04/22 00:17:44;;;;;;;10.73;9.20;;;;;;;;;;4993349;28;20053;-70
2022/04/22 00:20:11;;;;;;;11.05;9.25;;;;;;;;;;4993740;28;20026;-70
2022/04/22 00:22:39;;;;;;;16.38;9.43;;;;;;;;;;4993923;28;20026;-70
2022/04/22 00:25:06;;;;;;;9.57;8.45;;;;;;;;;;4993608;28;20041;-71
2022/04/22 00:27:32;;;;;;;9.90;8.90;;;;;;;;;;4994192;28;20031;-70
2022/04/22 00:29:59;;;;;;;10.27;9.27;;;;;;;;;;4993440;28;20049;-70
2022/04/22 00:32:25;;;;;;;9.60;8.60;;;;;;;;;;4993055;28;20026;-69
2022/04/22 00:34:51;;;;;;;10.85;8.85;;;;;;;;;;4993272;28;20024;-70
2022/04/22 00:37:18;;;;;;;11.30;9.60;;;;;;;;;;4993138;28;20026;-70
2022/04/22 00:39:44;;;;;;;11.90;9.48;;;;;;;;;;4994328;28;20026;-70
2022/04/22 00:42:11;;;;;;;12.93;8.95;;;;;;;;;;4993007;28;20386;-70
2022/04/22 00:44:37;;;;;;;11.35;9.40;;;;;;;;;;4992944;28;20064;-70
2022/04/22 00:47:04;;;;;;;12.80;9.48;;;;;;;;;;4992880;28;20025;-70
2022/04/22 00:49:30;;;;;;;11.18;9.38;;;;;;;;;;4992974;28;20018;-70
2022/04/22 00:51:57;;;;;;;15.52;9.25;;;;;;;;;;4993100;28;20399;-70
2022/04/22 00:54:23;;;;;;;11.25;9.95;;;;;;;;;;4993435;28;20034;-70
2022/04/22 00:56:50;;;;;;;13.55;9.93;;;;;;;;;;4992912;28;20030;-70
2022/04/22 00:59:16;;;;;;;11.63;9.55;;;;;;;;;;4993030;28;20027;-70
2022/04/22 01:01:43;;;;;;;9.65;8.65;;;;;;;;;;4992522;28;20022;-71
2022/04/22 01:09:50;;;;;;;9.77;8.75;;;;;;;;;;4993220;28;20038;-70
2022/04/22 01:12:17;;;;;;;10.63;9.52;;;;;;;;;;4992825;28;20022;-70
2022/04/22 01:14:44;;;;;;;17.00;12.45;;;;;;;;;;4992591;28;20601;-70
2022/04/22 01:17:10;;;;;;;11.23;10.00;;;;;;;;;;4992336;28;20037;-70
2022/04/22 01:19:37;;;;;;;10.65;8.32;;;;;;;;;;4992904;28;20014;-70
2022/04/22 01:22:03;;;;;;;9.15;8.25;;;;;;;;;;4992451;28;20038;-70
2022/04/22 01:24:30;;;;;;;8.32;7.53;;;;;;;;;;4992983;28;20045;-70
2022/04/22 01:26:57;;;;;;;13.45;7.55;;;;;;;;;;4992508;28;20514;-70
2022/04/22 01:29:24;;;;;;;9.70;8.38;;;;;;;;;;4986770;28;20037;-69
2022/04/22 01:31:51;;;;;;;10.90;7.50;;;;;;;;;;4988063;28;20030;-70
2022/04/22 01:34:17;;;;;;;8.60;7.68;;;;;;;;;;4992390;28;20027;-70
2022/04/22 01:36:44;;;;;;;11.65;7.22;;;;;;;;;;4988751;28;20041;-70
2022/04/22 01:39:10;;;;;;;8.98;7.75;;;;;;;;;;4987981;28;20057;-70
2022/04/22 01:41:36;;;;;;;10.50;7.47;;;;;;;;;;4987850;28;20022;-70
2022/04/22 01:44:03;;;;;;;8.32;7.50;;;;;;;;;;4987397;28;20045;-70
2022/04/22 01:46:29;;;;;;;8.23;7.40;;;;;;;;;;4990662;28;20057;-70
2022/04/22 01:48:57;;;;;;;8.35;6.88;;;;;;;;;;4988927;28;20035;-70
2022/04/22 01:51:24;;;;;;;12.20;7.57;;;;;;;;;;4988192;28;20054;-70
2022/04/22 01:53:51;;;;;;;10.80;7.10;;;;;;;;;;4988073;28;20037;-70
2022/04/22 01:56:18;;;;;;;9.75;7.35;;;;;;;;;;4987687;28;20365;-70
2022/04/22 01:58:44;;;;;;;8.77;7.63;;;;;;;;;;4988157;28;20029;-70
2022/04/22 02:01:11;;;;;;;8.45;7.50;;;;;;;;;;4990477;28;20027;-70
2022/04/22 02:03:37;;;;;;;8.27;7.47;;;;;;;;;;4988416;28;20015;-70
2022/04/22 02:06:04;;;;;;;10.80;6.93;;;;;;;;;;4987587;28;20545;-69
2022/04/22 02:08:31;;;;;;;11.65;7.72;;;;;;;;;;4987496;28;20046;-70
2022/04/22 02:10:57;;;;;;;9.38;7.20;;;;;;;;;;4987385;28;20018;-70
2022/04/22 02:13:24;;;;;;;9.45;7.95;;;;;;;;;;4990894;28;20511;-70
2022/04/22 02:15:50;;;;;;;10.77;7.63;;;;;;;;;;4988774;28;20391;-70
2022/04/22 02:18:16;;;;;;;7.88;7.13;;;;;;;;;;4987742;28;20044;-70
2022/04/22 02:20:43;;;;;;;8.23;7.25;;;;;;;;;;4987679;28;20030;-70
2022/04/22 02:23:10;;;;;;;9.90;7.28;;;;;;;;;;4987528;28;20033;-70
2022/04/22 02:25:36;;;;;;;9.57;7.85;;;;;;;;;;4989330;28;20511;-70
2022/04/22 02:30:48;;;;;;;9.00;8.10;;;;;;;;;;4988379;28;20023;-70
2022/04/22 02:33:14;;;;;;;9.68;8.05;;;;;;;;;;4987586;28;20035;-70
2022/04/22 02:35:40;;;;;;;8.20;7.40;;;;;;;;;;4987852;28;20037;-70
2022/04/22 02:38:07;;;;;;;8.38;7.38;;;;;;;;;;4987168;28;20029;-70
2022/04/22 02:46:04;;;;;;;10.57;8.18;;;;;;;;;;4991634;28;20034;-70
2022/04/22 02:48:30;;;;;;;11.25;9.27;;;;;;;;;;4993644;28;20049;-70
2022/04/22 02:50:57;;;;;;;8.70;7.80;;;;;;;;;;4989408;28;20410;-70
2022/04/22 02:53:23;;;;;;;10.25;8.15;;;;;;;;;;4991400;28;20026;-70
2022/04/22 02:55:51;;;;;;;9.20;8.20;;;;;;;;;;4991802;28;20028;-70
2022/04/22 02:58:17;;;;;;;10.05;8.57;;;;;;;;;;4991534;28;20023;-70
2022/04/22 03:00:44;;;;;;;9.52;8.35;;;;;;;;;;4994421;28;20018;-70
2022/04/22 03:03:10;;;;;;;9.13;8.23;;;;;;;;;;4995120;28;20402;-70
2022/04/22 03:05:37;;;;;;;10.05;8.98;;;;;;;;;;5003580;28;20505;-70
2022/04/22 03:08:05;;;;;;;14.02;9.77;;;;;;;;;;4985801;28;20034;-70
2022/04/22 03:10:31;;;;;;;12.15;10.85;;;;;;;;;;4994952;28;20019;-70
2022/04/22 03:12:58;;;;;;;15.23;11.70;;;;;;;;;;4994876;28;20030;-70
2022/04/22 03:15:24;;;;;;;14.43;12.70;;;;;;;;;;4995323;28;20023;-70
2022/04/22 03:17:51;;;;;;;15.93;13.05;;;;;;;;;;4999802;28;20029;-70
2022/04/22 03:20:17;;;;;;;15.20;13.20;;;;;;;;;;5001886;28;20033;-70
2022/04/22 03:22:44;;;;;;;11.60;9.95;;;;;;;;;;4994972;28;20398;-70
2022/04/22 03:25:11;;;;;;;10.75;9.65;;;;;;;;;;4994683;28;20091;-70
2022/04/22 03:27:37;;;;;;;10.57;9.48;;;;;;;;;;4995239;28;20030;-70
2022/04/22 03:30:04;;;;;;;12.60;9.07;;;;;;;;;;4993819;28;20030;-70
2022/04/22 03:32:30;;;;;;;11.80;9.25;;;;;;;;;;4994505;28;20410;-70
2022/04/22 03:34:57;;;;;;;11.65;8.30;;;;;;;;;;4994419;28;20449;-70
2022/04/22 03:37:23;;;;;;;12.20;8.35;;;;;;;;;;4994709;28;20041;-70
2022/04/22 03:39:50;;;;;;;9.73;8.73;;;;;;;;;;5006666;28;20026;-70
2022/04/22 03:42:16;;;;;;;10.63;9.52;;;;;;;;;;4994486;28;20034;-70
2022/04/22 03:44:42;;;;;;;9.68;8.68;;;;;;;;;;5001723;28;20065;-71
2022/04/22 03:47:09;;;;;;;11.63;8.90;;;;;;;;;;4983564;28;20049;-70
2022/04/22 03:49:35;;;;;;;11.82;9.18;;;;;;;;;;4994071;28;20531;-70
2022/04/22 03:52:01;;;;;;;11.60;9.98;;;;;;;;;;4994493;28;20030;-70
2022/04/22 03:54:28;;;;;;;10.55;9.45;;;;;;;;;;4994260;28;20030;-70
2022/04/22 03:59:39;;;;;;;10.93;9.52;;;;;;;;;;4994124;28;20023;-69
2022/04/22 04:02:07;;;;;;;10.77;9.48;;;;;;;;;;4993856;28;20036;-70
2022/04/22 04:04:34;;;;;;;10.85;8.52;;;;;;;;;;4993986;28;20410;-70
2022/04/22 04:07:00;;;;;;;13.38;9.38;;;;;;;;;;5007718;28;20037;-70
2022/04/22 04:17:41;;;;;;;11.65;9.93;;;;;;;;;;4989906;28;20041;-70
2022/04/22 04:25:39;;;;;;;11.30;8.50;;;;;;;;;;4993255;28;20026;-70
2022/04/22 04:28:09;;;;;;;11.20;8.90;;;;;;;;;;4993549;28;20042;-70
2022/04/22 04:30:39;;;;;;;10.75;9.65;;;;;;;;;;4993923;28;20034;-70
2022/04/22 04:33:06;;;;;;;9.68;8.68;;;;;;;;;;4993389;28;20056;-70
2022/04/22 04:35:34;;;;;;;11.82;8.77;;;;;;;;;;4993362;28;20034;-70
2022/04/22 04:38:01;;;;;;;8.30;7.50;;;;;;;;;;4993159;28;20015;-70
2022/04/22 04:40:27;;;;;;;8.93;7.00;;;;;;;;;;4993200;28;20031;-70
2022/04/22 04:42:53;;;;;;;9.00;7.32;;;;;;;;;;5006253;28;20057;-70
2022/04/22 04:45:20;;;;;;;9.68;7.25;;;;;;;;;;4993356;28;20043;-70
2022/04/22 04:47:47;;;;;;;7.28;6.45;;;;;;;;;;4993004;28;20031;-70
2022/04/22 04:50:13;;;;;;;9.23;6.97;;;;;;;;;;4992862;28;20054;-70
2022/04/22 04:52:41;;;;;;;9.07;6.22;;;;;;;;;;4992677;28;20025;-70
2022/04/22 04:55:09;;;;;;;7.80;6.50;;;;;;;;;;4993131;28;20026;-70
2022/04/22 04:57:35;;;;;;;7.00;6.30;;;;;;;;;;4993451;28;20026;-70
2022/04/22 05:00:03;;;;;;;7.00;6.00;;;;;;;;;;4993070;28;20036;-70
2022/04/22 05:02:29;;;;;;;9.57;6.03;;;;;;;;;;5002723;28;20026;-70
2022/04/22 05:04:55;;;;;;;6.80;6.20;;;;;;;;;;4982940;28;20488;-70
2022/04/22 05:07:22;;;;;;;10.40;7.15;;;;;;;;;;4992354;28;20022;-70
2022/04/22 05:09:48;;;;;;;9.63;7.88;;;;;;;;;;4993062;28;20037;-70
2022/04/22 05:12:14;;;;;;;12.85;9.18;;;;;;;;;;4992833;28;20073;-70
2022/04/22 05:14:41;;;;;;;11.98;10.40;;;;;;;;;;5000627;28;20033;-70
2022/04/22 05:17:07;;;;;;;13.02;10.57;;;;;;;;;;4979920;28;20447;-70
2022/04/22 05:19:33;;;;;;;13.82;11.07;;;;;;;;;;4990310;28;20484;-70
2022/04/22 05:22:00;;;;;;;17.13;10.73;;;;;;;;;;4990610;28;20022;-70
2022/04/22 05:24:26;;;;;;;13.30;10.50;;;;;;;;;;4992194;28;20483;-70
2022/04/22 05:26:52;;;;;;;16.00;10.60;;;;;;;;;;4992388;28;20026;-70
2022/04/22 05:34:49;;;;;;;12.43;11.10;;;;;;;;;;4992219;28;20446;-70
2022/04/22 05:37:15;;;;;;;13.57;11.98;;;;;;;;;;4992368;28;20030;-70
2022/04/22 05:39:43;;;;;;;14.43;10.15;;;;;;;;;;4992718;28;20389;-70
2022/04/22 05:42:10;;;;;;;16.75;11.65;;;;;;;;;;4992218;28;20030;-70
2022/04/22 05:44:37;;;;;;;13.10;11.00;;;;;;;;;;4991885;28;20069;-70
2022/04/22 05:47:03;;;;;;;14.15;10.52;;;;;;;;;;4991010;28;20036;-70
2022/04/22 05:49:30;;;;;;;12.00;10.48;;;;;;;;;;4991974;28;20034;-70
2022/04/22 05:51:56;;;;;;;11.57;10.38;;;;;;;;;;4991988;28;20026;-70
2022/04/22 05:54:22;;;;;;;13.15;11.25;;;;;;;;;;4992559;28;20037;-70
2022/04/22 05:56:48;;;;;;;13.38;10.93;;;;;;;;;;4991994;28;20022;-70
2022/04/22 05:59:15;;;;;;;12.80;11.38;;;;;;;;;;4991861;28;20473;-70
2022/04/22 06:01:41;;;;;;;14.00;10.90;;;;;;;;;;4992047;28;20027;-70
2022/04/22 06:04:07;;;;;;;12.30;11.00;;;;;;;;;;4991801;28;20042;-70
2022/04/22 06:06:34;;;;;;;16.77;11.88;;;;;;;;;;4991971;28;20065;-70
2022/04/22 06:11:45;;;;;;;13.93;11.95;;;;;;;;;;4988237;28;20403;-70
2022/04/22 06:14:12;;;;;;;15.35;11.50;;;;;;;;;;4991707;28;20030;-70
2022/04/22 06:16:39;;;;;;;12.35;10.98;;;;;;;;;;4991636;28;20031;-70
2022/04/22 06:19:05;;;;;;;14.82;11.10;;;;;;;;;;4991796;28;20033;-70
2022/04/22 06:21:32;;;;;;;13.88;11.20;;;;;;;;;;4991682;28;20045;-70
2022/04/22 06:23:58;;;;;;;16.20;11.23;;;;;;;;;;4988641;28;20041;-70
2022/04/22 06:26:24;;;;;;;11.48;10.10;;;;;;;;;;4987268;28;20054;-71
2022/04/22 06:28:51;;;;;;;12.45;10.73;;;;;;;;;;4987097;28;20031;-70
2022/04/22 06:31:18;;;;;;;12.65;10.68;;;;;;;;;;4991527;28;20022;-70
2022/04/22 06:33:44;;;;;;;15.52;10.52;;;;;;;;;;4988186;28;20518;-70
2022/04/22 06:36:13;;;;;;;13.07;10.60;;;;;;;;;;4993675;28;20026;-71
2022/04/22 06:38:40;;;;;;;11.30;10.00;;;;;;;;;;4994985;28;20034;-70
2022/04/22 06:46:37;;;;;;;12.27;9.75;;;;;;;;;;4992535;28;20030;-70
2022/04/22 06:49:03;;;;;;;12.38;9.43;;;;;;;;;;4994192;28;20039;-70
2022/04/22 06:51:30;;;;;;;11.55;9.20;;;;;;;;;;4994233;28;20034;-71
2022/04/22 06:53:56;;;;;;;10.85;9.75;;;;;;;;;;4990273;28;20019;-71
2022/04/22 06:56:26;;;;;;;11.90;9.43;;;;;;;;;;4990696;28;20026;-70
2022/04/22 06:58:53;;;;;;;10.60;8.95;;;;;;;;;;4989440;28;20145;-70
2022/04/22 07:01:19;;;;;;;9.63;8.60;;;;;;;;;;4993845;28;20034;-69
2022/04/22 07:03:46;;;;;;;11.77;8.77;;;;;;;;;;4995418;28;20105;-69
2022/04/22 07:06:12;;;;;;;8.52;7.72;;;;;;;;;;4994388;28;20446;-70
2022/04/22 07:08:41;;;;;;;9.77;8.50;;;;;;;;;;4990068;28;20045;-70
2022/04/22 07:11:07;;;;;;;11.18;8.70;;;;;;;;;;4990574;28;20027;-70
2022/04/22 07:13:34;;;;;;;9.60;8.60;;;;;;;;;;4994522;28;20026;-70
2022/04/22 07:16:02;;;;;;;9.50;7.95;;;;;;;;;;4997356;28;20022;-70
2022/04/22 07:18:28;;;;;;;11.27;9.32;;;;;;;;;;4991410;28;20037;-70
2022/04/22 07:20:54;;;;;;;13.95;9.77;;;;;;;;;;4994093;28;20026;-70
2022/04/22 07:23:21;;;;;;;11.25;9.38;;;;;;;;;;4994145;28;20023;-70
2022/04/22 07:25:48;;;;;;;12.77;9.82;;;;;;;;;;4992558;28;20395;-70
2022/04/22 07:28:14;;;;;;;12.38;10.15;;;;;;;;;;4993300;28;20042;-70
2022/04/22 07:30:46;;;;;;;12.00;10.10;;;;;;;;;;4996518;28;20030;-70
2022/04/22 07:33:12;;;;;;;11.77;10.00;;;;;;;;;;4992956;28;20400;-70
2022/04/22 07:35:39;;;;;;;13.88;9.90;;;;;;;;;;4993522;28;20015;-70
2022/04/22 07:38:06;;;;;;;11.77;9.80;;;;;;;;;;4993097;28;20034;-70
2022/04/22 07:40:32;;;;;;;11.30;9.40;;;;;;;;;;4991887;28;20087;-70
2022/04/22 07:48:29;;;;;;;13.07;7.80;;;;;;;;;;4997390;28;20033;-70
2022/04/22 07:50:55;;;;;;;10.50;8.65;;;;;;;;;;4990275;28;20109;-70
2022/04/22 07:53:22;;;;;;;9.15;8.25;;;;;;;;;;4992488;28;20010;-70
2022/04/22 07:55:49;;;;;;;11.00;8.18;;;;;;;;;;4992577;28;20030;-70
2022/04/22 07:58:17;;;;;;;8.82;7.95;;;;;;;;;;4977081;28;20028;-70
2022/04/22 08:00:44;;;;;;;10.40;8.32;;;;;;;;;;4996897;28;20026;-70
2022/04/22 08:03:11;;;;;;;10.45;8.23;;;;;;;;;;4988138;28;20026;-70
2022/04/22 08:05:37;;;;;;;8.68;7.72;;;;;;;;;;4987809;28;20044;-71
2022/04/22 08:08:05;;;;;;;8.55;7.20;;;;;;;;;;4992807;28;20037;-70
2022/04/22 08:10:31;;;;;;;11.13;7.45;;;;;;;;;;5000179;28;20034;-70
2022/04/22 08:12:58;;;;;;;8.48;7.20;;;;;;;;;;4991887;28;20375;-70
2022/04/22 08:15:25;;;;;;;10.30;7.80;;;;;;;;;;4992453;28;20029;-70
2022/04/22 08:17:51;;;;;;;8.43;7.40;;;;;;;;;;4999904;28;20495;-70
2022/04/22 08:20:18;;;;;;;7.47;6.78;;;;;;;;;;5002669;28;20499;-70
2022/04/22 08:22:44;;;;;;;7.10;6.40;;;;;;;;;;4988493;28;20023;-70
2022/04/22 08:25:11;;;;;;;6.30;5.60;;;;;;;;;;4991745;28;20034;-71
2022/04/22 08:27:38;;;;;;;6.43;5.72;;;;;;;;;;4992076;28;20128;-71
2022/04/22 08:30:06;;;;;;;8.15;6.05;;;;;;;;;;4991435;28;20384;-71
2022/04/22 08:32:32;;;;;;;6.97;5.00;;;;;;;;;;4991480;28;20041;-70
2022/04/22 08:34:58;;;;;;;6.22;5.22;;;;;;;;;;4992065;28;20025;-71
2022/04/22 08:37:25;;;;;;;7.85;5.20;;;;;;;;;;4991868;28;20503;-70
2022/04/22 08:39:51;;;;;;;7.25;4.97;;;;;;;;;;4992046;28;20142;-71
2022/04/22 08:42:18;;;;;;;7.90;5.38;;;;;;;;;;4991922;28;20040;-71
2022/04/22 08:44:46;;;;;;;5.65;5.00;;;;;;;;;;4991191;28;20046;-70
2022/04/22 08:50:09;;;;;;;6.93;6.03;;;;;;;;;;4987163;28;20384;-71
2022/04/22 08:52:36;;;;;;;6.93;5.20;;;;;;;;;;4988843;28;20059;-71
2022/04/22 08:55:06;;;;;;;5.22;4.68;;;;;;;;;;4990186;28;20034;-71
2022/04/22 08:57:32;;;;;;;6.28;4.38;;;;;;;;;;4987650;28;20026;-71
2022/04/22 09:00:03;;;;;;;5.50;4.35;;;;;;;;;;4986604;28;20035;-71
2022/04/22 09:02:30;;;;;;;7.05;4.25;;;;;;;;;;4986992;28;20561;-71
2022/04/22 09:04:56;;;;;;;4.95;4.45;;;;;;;;;;4987046;28;20019;-71
2022/04/22 09:07:27;;;;;;;4.90;4.00;;;;;;;;;;4989417;28;20076;-71
2022/04/22 09:09:53;;;;;;;;;;;;;;;;;;4989078;28;20032;-71
2022/04/22 09:12:21;;;;;;;7.20;4.55;;;;;;;;;;4987329;28;19909;-70
2022/04/22 09:14:49;;;;;;;4.45;3.55;;;;;;;;;;4986666;28;20066;-71
2022/04/22 09:17:17;;;;;;;6.55;4.28;;;;;;;;;;4990655;28;20036;-71
2022/04/22 09:19:44;;;;;;;6.22;4.47;;;;;;;;;;4987525;28;20053;-71
2022/04/22 09:22:10;;;;;;;4.47;4.07;;;;;;;;;;4990675;28;20034;-70
2022/04/22 09:24:47;;;;;;;5.10;4.47;;;;;;;;;;4991288;28;20026;-71
2022/04/22 09:27:14;;;;;;;7.63;6.22;;;;;;;;;;4987148;28;20491;-71
2022/04/22 09:29:52;;;;;;;4.82;4.40;;;;;;;;;;4986376;28;20391;-71
2022/04/22 09:32:22;;;;;;;4.90;4.50;;;;;;;;;;4986637;28;20027;-71
2022/04/22 09:34:48;;;;;;;7.75;4.53;;;;;;;;;;4986798;28;20037;-71
2022/04/22 09:42:55;;;;;;;6.75;4.25;;;;;;;;;;4987684;28;20038;-71
2022/04/22 09:45:22;;;;;;;6.47;4.55;;;;;;;;;;4986789;28;20052;-71
2022/04/22 09:47:58;;;;;;;4.80;4.40;;;;;;;;;;4986447;28;20038;-70
2022/04/22 09:50:44;;;;;;;5.85;4.22;;;;;;;;;;4990363;28;20034;-71
2022/04/22 09:53:11;;;;;;;6.43;4.30;;;;;;;;;;4990374;28;20034;-71
2022/04/22 09:55:48;;;;;;;6.68;4.13;;;;;;;;;;4988246;28;20030;-71
2022/04/22 09:58:22;;;;;;;6.43;4.07;;;;;;;;;;4990159;28;20042;-71
2022/04/22 10:00:50;;;;;;;4.25;3.92;;;;;;;;;;4994094;28;20033;-71
2022/04/22 10:03:16;;;;;;;9.98;4.45;;;;;;;;;;5007841;28;20046;-71
2022/04/22 10:05:45;;;;;;;6.00;4.10;;;;;;;;;;4991240;28;20496;-71
2022/04/22 10:08:11;;;;;;;5.82;3.63;;;;;;;;;;4990865;28;20026;-71
2022/04/22 10:10:42;;;;;;;4.50;4.10;;;;;;;;;;4989869;28;20015;-71
2022/04/22 10:13:13;;;;;;;4.25;3.85;;;;;;;;;;5001123;28;20029;-71
2022/04/22 10:15:40;;;;;;;3.72;3.42;;;;;;;;;;5002145;28;20060;-71
2022/04/22 10:18:11;;;;;;;5.90;4.00;;;;;;;;;;4990813;28;20034;-71
2022/04/22 10:20:38;;;;;;;6.18;3.80;;;;;;;;;;4986515;28;20084;-71
2022/04/22 10:23:05;;;;;;;5.85;3.80;;;;;;;;;;4986104;28;20023;-71
2022/04/22 10:25:31;;;;;;;4.22;3.80;;;;;;;;;;4996054;28;20041;-71
2022/04/22 10:28:01;;;;;;;3.67;3.35;;;;;;;;;;4988261;28;20037;-71
2022/04/22 10:30:28;;;;;;;4.70;3.60;;;;;;;;;;4988148;28;20038;-71
2022/04/22 10:32:54;;;;;;;3.47;3.20;;;;;;;;;;4986624;28;20714;-70
2022/04/22 10:35:24;;;;;;;7.13;3.58;;;;;;;;;;4985879;28;20102;-70
2022/04/22 10:37:52;;;;;;;;;;;;;;;;;;4986820;28;20033;-70
2022/04/22 10:40:25;;;;;;;4.10;3.65;;;;;;;;;;4989611;28;20309;-70
2022/04/22 10:42:52;;;;;;;4.10;3.55;;;;;;;;;;4987259;28;20068;-71
2022/04/22 10:48:21;;;;;;;3.33;3.05;;;;;;;;;;4990956;28;20030;-71
2022/04/22 10:50:58;;;;;;;5.35;3.58;;;;;;;;;;4985978;28;20033;-71
2022/04/22 10:53:25;;;;;;;4.55;2.80;;;;;;;;;;4985782;28;20500;-69
2022/04/22 10:55:52;;;;;;;4.13;2.70;;;;;;;;;;4985964;28;20030;-71
2022/04/22 10:58:21;;;;;;;3.53;2.75;;;;;;;;;;4990207;28;20023;-70
2022/04/22 11:00:49;;;;;;;4.13;3.45;;;;;;;;;;4989539;28;20390;-71
2022/04/22 11:03:16;;;;;;;2.85;2.53;;;;;;;;;;4986207;28;20032;-70
2022/04/22 11:05:44;;;;;;;4.35;2.80;;;;;;;;;;4985821;28;20030;-71
2022/04/22 11:08:18;;;;;;;4.45;2.63;;;;;;;;;;4990096;28;20026;-71
2022/04/22 11:10:48;;;;;;;4.28;2.75;;;;;;;;;;4986574;28;20552;-71
2022/04/22 11:13:14;;;;;;;;;;;;;;;;;;4990328;28;20395;-69
2022/04/22 11:15:43;;;;;;;4.47;2.53;;;;;;;;;;5002966;28;19959;-70
2022/04/22 11:18:13;;;;;;;13.45;2.75;;;;;;;;;;4986430;28;20093;-71
2022/04/22 11:20:48;;;;;;;4.78;2.72;;;;;;;;;;4986096;28;20080;-71
2022/04/22 11:23:14;;;;;;;3.05;2.55;;;;;;;;;;4989108;28;20023;-71
2022/04/22 11:25:41;;;;;;;3.35;2.58;;;;;;;;;;4990558;28;20038;-71
2022/04/22 11:28:08;;;;;;;3.15;2.63;;;;;;;;;;4992498;28;20027;-71
2022/04/22 11:30:35;;;;;;;6.50;2.78;;;;;;;;;;4993908;28;20026;-71
2022/04/22 11:33:04;;;;;;;7.47;2.17;;;;;;;;;;4994505;28;20023;-71
2022/04/22 11:35:34;;;;;;;3.85;2.40;;;;;;;;;;4989231;28;20034;-71
2022/04/22 11:38:01;;;;;;;4.05;2.28;;;;;;;;;;4988895;28;20447;-71
2022/04/22 11:40:28;;;;;;;4.43;2.72;;;;;;;;;;4993039;28;20022;-71
2022/04/22 11:42:59;;;;;;;4.40;2.40;;;;;;;;;;4993817;28;20076;-71
2022/04/22 11:45:26;;;;;;;3.38;2.20;;;;;;;;;;4989108;28;20415;-71
2022/04/22 11:47:53;;;;;;;2.10;1.92;;;;;;;;;;4992548;28;20027;-71
2022/04/22 11:50:20;;;;;;;2.70;2.03;;;;;;;;;;4991172;28;20399;-71
2022/04/22 11:52:55;;;;;;;7.20;2.10;;;;;;;;;;4992221;28;20395;-71
2022/04/22 11:55:22;;;;;;;3.05;1.75;;;;;;;;;;4980166;28;20031;-71
2022/04/22 11:57:49;;;;;;;1.70;1.60;;;;;;;;;;4993251;28;20019;-70
2022/04/22 12:05:49;;;;;;;2.42;1.80;;;;;;;;;;4992339;28;20033;-70
2022/04/22 12:08:16;;;;;;;7.68;2.20;;;;;;;;;;4988068;28;20030;-71
2022/04/22 12:10:46;;;;;;;3.20;2.03;;;;;;;;;;4989257;28;20027;-71
2022/04/22 12:13:16;;;;;;;4.40;1.45;;;;;;;;;;4991938;28;20030;-70
2022/04/22 12:15:48;;;;;;;2.28;1.60;;;;;;;;;;4993164;28;20398;-70
2022/04/22 12:18:27;;;;;;;2.50;1.95;;;;;;;;;;4987615;28;20565;-71
2022/04/22 12:20:54;;;;;;;2.63;2.00;;;;;;;;;;4988282;28;20041;-70
2022/04/22 12:23:21;;;;;;;5.45;2.00;;;;;;;;;;4989171;28;20036;-71
2022/04/22 12:25:56;;;;;;;5.45;1.83;;;;;;;;;;4992491;28;20018;-70
2022/04/22 12:28:24;;;;;;;3.70;1.90;;;;;;;;;;4977552;28;20026;-70
2022/04/22 12:30:50;;;;;;;2.20;1.80;;;;;;;;;;4991736;28;20028;-70
2022/04/22 12:33:18;;;;;;;3.67;2.13;;;;;;;;;;4991500;28;20017;-71
2022/04/22 12:35:45;;;;;;;4.35;1.80;;;;;;;;;;4988344;28;20042;-70
2022/04/22 12:38:13;;;;;;;7.32;2.00;;;;;;;;;;4987398;28;20038;-70
2022/04/22 12:40:47;;;;;;;4.82;1.83;;;;;;;;;;4989296;28;20042;-70
2022/04/22 12:43:28;;;;;;;3.25;1.73;;;;;;;;;;4992302;28;20023;-70
2022/04/22 12:54:34;;;;;;;2.50;1.70;;;;;;;;;;4989885;28;20529;-70
2022/04/22 12:57:01;;;;;;;2.38;1.60;;;;;;;;;;4993858;28;20031;-71
2022/04/22 12:59:43;;;;;;;4.28;1.15;;;;;;;;;;4993548;28;20041;-70
2022/04/22 13:02:10;;;;;;;3.92;1.45;;;;;;;;;;4987456;28;20496;-70
2022/04/22 13:04:49;;;;;;;4.28;1.50;;;;;;;;;;4992106;28;20041;-70
2022/04/22 13:07:16;;;;;;;6.70;1.70;;;;;;;;;;4991409;28;20034;-70
2022/04/22 13:09:42;;;;;;;3.75;1.30;;;;;;;;;;4991570;28;20411;-70
2022/04/22 13:12:09;;;;;;;2.67;1.48;;;;;;;;;;4997254;28;20036;-70
2022/04/22 13:14:36;;;;;;;1.95;1.30;;;;;;;;;;4998031;28;20434;-70
2022/04/22 13:17:03;;;;;;;1.67;1.30;;;;;;;;;;4993177;28;20031;-70
2022/04/22 13:19:30;;;;;;;2.85;1.27;;;;;;;;;;4995045;28;20030;-70
2022/04/22 13:21:57;;;;;;;1.58;1.35;;;;;;;;;;4995200;28;20018;-70
2022/04/22 13:24:24;;;;;;;4.50;1.40;;;;;;;;;;5002775;28;20028;-70
2022/04/22 13:26:53;;;;;;;2.70;1.48;;;;;;;;;;4990031;28;20035;-70
2022/04/22 13:29:19;;;;;;;4.38;1.60;;;;;;;;;;4986794;28;20026;-70
2022/04/22 13:31:46;;;;;;;1.40;1.30;;;;;;;;;;4991589;28;20065;-70
2022/04/22 13:34:12;;;;;;;4.35;1.45;;;;;;;;;;4990506;28;20034;-71
2022/04/22 13:36:38;;;;;;;2.60;1.30;;;;;;;;;;4998770;28;20029;-70
2022/04/22 13:39:05;;;;;;;2.70;1.35;;;;;;;;;;4987873;28;20040;-70
2022/04/22 13:41:32;;;;;;;1.70;1.20;;;;;;;;;;4987970;28;20018;-70
2022/04/22 13:43:58;;;;;;;2.70;1.60;;;;;;;;;;5009973;28;20056;-70
2022/04/22 13:54:40;;;;;;;3.30;1.50;;;;;;;;;;4991607;28;20040;-70
2022/04/22 13:57:06;;;;;;;2.83;1.52;;;;;;;;;;4990626;28;20499;-70
2022/04/22 13:59:33;;;;;;;1.42;1.00;;;;;;;;;;4990774;28;20052;-70
2022/04/22 14:01:59;;;;;;;3.88;1.58;;;;;;;;;;4990433;28;20022;-70
2022/04/22 14:04:25;;;;;;;2.92;1.40;;;;;;;;;;4990530;28;20026;-70
2022/04/22 14:06:52;;;;;;;1.20;1.10;;;;;;;;;;5003651;28;20048;-71
2022/04/22 14:09:18;;;;;;;1.77;1.20;;;;;;;;;;5000189;28;20395;-70
2022/04/22 14:11:46;;;;;;;3.67;1.15;;;;;;;;;;4993088;28;20483;-71
2022/04/22 14:14:12;;;;;;;3.33;1.30;;;;;;;;;;4994004;28;20033;-71
2022/04/22 14:16:38;;;;;;;1.77;1.52;;;;;;;;;;5005698;28;20022;-71
2022/04/22 14:19:05;;;;;;;2.28;1.30;;;;;;;;;;4991078;28;20042;-71
2022/04/22 14:21:32;;;;;;;1.95;1.25;;;;;;;;;;4990894;28;20026;-70
2022/04/22 14:24:02;;;;;;;1.88;1.27;;;;;;;;;;4995740;28;20025;-71
2022/04/22 14:26:29;;;;;;;4.55;1.30;;;;;;;;;;4990049;28;20084;-70
2022/04/22 14:28:56;;;;;;;2.45;1.33;;;;;;;;;;4985897;28;20053;-70
2022/04/22 14:31:22;;;;;;;5.10;1.10;;;;;;;;;;4990773;28;20018;-71
2022/04/22 14:33:49;;;;;;;1.58;1.30;;;;;;;;;;4990660;28;20045;-70
2022/04/22 14:36:15;;;;;;;1.88;1.50;;;;;;;;;;4987501;28;20026;-70
2022/04/22 14:38:42;;;;;;;1.35;1.25;;;;;;;;;;4986629;28;20035;-70
2022/04/22 14:41:08;;;;;;;1.90;1.25;;;;;;;;;;4986999;28;20407;-71
2022/04/22 14:43:34;;;;;;;1.17;1.10;;;;;;;;;;4988052;28;20022;-70
2022/04/22 14:46:01;;;;;;;2.25;1.33;;;;;;;;;;4989145;28;20415;-73
2022/04/22 14:48:27;;;;;;;2.92;2.15;;;;;;;;;;4990863;28;20034;-73
2022/04/22 14:50:53;;;;;;;1.88;1.35;;;;;;;;;;4987128;28;20073;-73
2022/04/22 14:53:20;;;;;;;3.30;1.50;;;;;;;;;;4986875;28;20303;-73
2022/04/22 14:55:46;;;;;;;1.98;1.55;;;;;;;;;;4988705;28;20033;-73
2022/04/22 14:58:13;;;;;;;3.42;1.55;;;;;;;;;;4994422;28;20492;-72
2022/04/22 15:00:39;;;;;;;2.42;1.70;;;;;;;;;;4989408;28;20030;-73
2022/04/22 15:03:05;;;;;;;2.30;1.33;;;;;;;;;;4994835;28;20057;-73
2022/04/22 15:05:32;;;;;;;3.00;2.13;;;;;;;;;;4994864;28;20034;-73
2022/04/22 15:07:59;;;;;;;3.28;2.15;;;;;;;;;;4994709;28;20491;-72
2022/04/22 15:10:26;;;;;;;2.42;1.45;;;;;;;;;;4994795;28;20038;-72
2022/04/22 15:12:54;;;;;;;2.60;1.70;;;;;;;;;;4995037;28;20030;-73
2022/04/22 15:15:21;;;;;;;6.10;1.50;;;;;;;;;;4995252;28;20488;-73
2022/04/22 15:26:03;;;;;;;1.67;1.27;;;;;;;;;;4990274;28;20030;-73
2022/04/22 15:28:30;;;;;;;2.67;1.65;;;;;;;;;;4993280;28;20030;-72
2022/04/22 15:31:03;;;;;;;3.75;1.58;;;;;;;;;;4991573;28;20033;-73
2022/04/22 15:33:32;;;;;;;2.28;1.60;;;;;;;;;;4990707;28;20036;-72
2022/04/22 15:36:02;;;;;;;2.40;1.30;;;;;;;;;;4990082;28;20026;-72
2022/04/22 15:38:35;;;;;;;2.88;1.38;;;;;;;;;;4990148;28;20042;-72
2022/04/22 15:41:02;;;;;;;2.88;1.63;;;;;;;;;;4994629;28;20034;-72
2022/04/22 15:43:28;;;;;;;3.20;1.60;;;;;;;;;;4994666;28;20026;-72
2022/04/22 15:45:55;;;;;;;4.78;2.13;;;;;;;;;;4992885;28;20049;-73
2022/04/22 15:48:21;;;;;;;3.35;1.77;;;;;;;;;;4994497;28;20035;-72
2022/04/22 15:50:47;;;;;;;2.63;1.88;;;;;;;;;;4994389;28;20030;-73
2022/04/22 15:53:14;;;;;;;2.63;1.58;;;;;;;;;;4994157;28;20023;-72
2022/04/22 15:55:40;;;;;;;2.30;1.55;;;;;;;;;;4994459;28;20034;-72
2022/04/22 15:58:07;;;;;;;2.80;1.80;;;;;;;;;;4993990;28;20034;-73
2022/04/22 16:00:34;;;;;;;2.38;1.63;;;;;;;;;;4994164;28;20472;-73
2022/04/22 16:03:01;;;;;;;2.05;1.73;;;;;;;;;;4994000;28;20015;-73
2022/04/22 16:05:27;;;;;;;4.82;1.98;;;;;;;;;;4993845;28;20402;-73
2022/04/22 16:07:54;;;;;;;2.95;1.50;;;;;;;;;;4993299;28;20131;-73
2022/04/22 16:10:20;;;;;;;3.35;1.90;;;;;;;;;;4994342;28;20026;-72